Time;durP1;ratioP1;P1;durP2;ratioP2;P2;SDS_P1;SDS_P2;PMS_P1;PMS_P2;Temp;Humidity;BMP_temperature;BMP_pressure;BME280_temperature;BME280_humidity;BME280_pressure;Samples;Min_cycle;Max_cycle;Signal;HPM_P1;HPM_P2
2021/07/11 00:00:17;;;;;;;;;;;19.00;99.90;;;;;;5083981;28;19932;-77
2021/07/11 00:02:43;;;;;;;;;;;19.00;99.90;;;;;;5082360;28;20335;-77
2021/07/11 00:05:12;;;;;;;;;;;19.00;99.90;;;;;;5079593;28;20075;-77
2021/07/11 00:07:39;;;;;;;;;;;19.00;99.90;;;;;;5080444;28;19928;-77
2021/07/11 00:10:06;;;;;;;;;;;19.00;99.90;;;;;;5079595;28;19932;-77
2021/07/11 00:12:33;;;;;;;;;;;18.80;99.90;;;;;;5084263;28;20375;-77
2021/07/11 00:15:00;;;;;;;;;;;18.90;99.90;;;;;;5085542;28;20393;-77
2021/07/11 00:17:27;;;;;;;;;;;19.00;99.90;;;;;;5084498;28;19931;-77
2021/07/11 00:19:55;;;;;;;;;;;18.80;99.90;;;;;;5083227;28;20407;-76
2021/07/11 00:22:22;;;;;;;;;;;18.80;99.90;;;;;;5088430;28;19932;-77
2021/07/11 00:24:50;;;;;;;;;;;18.80;99.90;;;;;;5083616;28;19924;-77
2021/07/11 00:27:17;;;;;;;;;;;18.80;99.90;;;;;;5086980;28;19924;-77
2021/07/11 00:29:44;;;;;;;;;;;18.80;99.90;;;;;;5078891;28;19985;-77
2021/07/11 00:32:11;;;;;;;;;;;18.90;99.90;;;;;;5079730;28;19924;-76
2021/07/11 00:34:38;;;;;;;;;;;18.90;99.90;;;;;;5077470;28;20291;-76
2021/07/11 00:37:05;;;;;;;;;;;19.00;99.90;;;;;;5081138;28;19928;-77
2021/07/11 00:39:32;;;;;;;;;;;19.00;99.90;;;;;;5085267;28;20270;-77
2021/07/11 00:41:58;;;;;;;;;;;18.90;99.90;;;;;;5078629;28;20375;-77
2021/07/11 00:44:25;;;;;;;;;;;18.90;99.90;;;;;;5078473;28;19924;-77
2021/07/11 00:46:52;;;;;;;;;;;18.80;99.90;;;;;;5118998;27;20353;-77
2021/07/11 00:49:19;;;;;;;;;;;18.90;99.90;;;;;;5080443;28;19924;-77
2021/07/11 00:51:46;;;;;;;;;;;19.00;99.90;;;;;;5079878;28;19924;-77
2021/07/11 00:54:13;;;;;;;;;;;18.90;99.90;;;;;;5115215;27;19940;-77
2021/07/11 00:56:44;;;;;;;;;;;18.90;99.90;;;;;;5081365;28;20293;-77
2021/07/11 00:59:11;;;;;;;;;;;18.90;99.90;;;;;;5092760;28;19936;-78
2021/07/11 01:02:02;;;;;;;;;;;18.80;99.90;;;;;;5081802;28;19970;-78
2021/07/11 01:04:36;;;;;;;;;;;18.90;99.90;;;;;;5080617;28;19931;-77
2021/07/11 01:07:04;;;;;;;;;;;18.90;99.90;;;;;;5078214;28;19928;-78
2021/07/11 01:09:36;;;;;;;;;;;18.90;99.90;;;;;;5082372;28;19928;-77
2021/07/11 01:12:04;;;;;;;;;;;18.90;99.90;;;;;;5095192;28;20001;-78
2021/07/11 01:14:33;;;;;;;;;;;18.90;99.90;;;;;;5073725;28;19942;-78
2021/07/11 01:17:02;;;;;;;;;;;18.90;99.90;;;;;;5086253;28;19946;-78
2021/07/11 01:19:41;;;;;;;;;;;18.80;99.90;;;;;;5087654;28;19947;-77
2021/07/11 01:22:11;;;;;;;;;;;18.90;99.90;;;;;;5080775;28;19928;-78
2021/07/11 01:24:40;;;;;;;;;;;18.90;99.90;;;;;;5078886;28;19924;-78
2021/07/11 01:27:07;;;;;;;;;;;18.90;99.90;;;;;;5083425;28;19924;-77
2021/07/11 01:29:34;;;;;;;;;;;18.80;99.90;;;;;;5080331;28;20398;-77
2021/07/11 01:32:01;;;;;;;;;;;18.80;99.90;;;;;;5080885;28;20366;-78
2021/07/11 01:34:28;;;;;;;;;;;18.80;99.90;;;;;;5083353;28;19935;-78
2021/07/11 01:36:56;;;;;;;;;;;18.80;99.90;;;;;;5078972;28;19970;-78
2021/07/11 01:39:23;;;;;;;;;;;18.80;99.90;;;;;;5078480;28;20011;-78
2021/07/11 01:41:51;;;;;;;;;;;18.80;99.90;;;;;;5081945;28;19932;-78
2021/07/11 01:44:18;;;;;;;;;;;18.80;99.90;;;;;;5079623;28;19924;-77
2021/07/11 01:46:45;;;;;;;;;;;18.70;99.90;;;;;;5087254;28;19999;-74
2021/07/11 01:49:13;;;;;;;;;;;18.60;99.90;;;;;;5087793;28;19924;-74
2021/07/11 01:51:40;;;;;;;;;;;18.60;99.90;;;;;;5080854;28;19924;-74
2021/07/11 01:54:07;;;;;;;;;;;18.60;99.90;;;;;;5077332;28;19955;-74
2021/07/11 01:56:34;;;;;;;;;;;18.50;99.90;;;;;;5085409;28;19924;-74
2021/07/11 01:59:01;;;;;;;;;;;18.80;99.90;;;;;;5073212;28;19924;-74
2021/07/11 02:01:28;;;;;;;;;;;18.80;99.90;;;;;;5078403;28;19931;-74
2021/07/11 02:03:55;;;;;;;;;;;18.80;99.90;;;;;;5080822;28;20425;-75
2021/07/11 02:06:22;;;;;;;;;;;18.60;99.90;;;;;;5076670;28;19933;-74
2021/07/11 02:08:49;;;;;;;;;;;18.60;99.90;;;;;;5074295;28;19924;-74
2021/07/11 02:11:16;;;;;;;;;;;18.40;99.90;;;;;;5077834;28;20368;-74
2021/07/11 02:13:43;;;;;;;;;;;18.40;99.90;;;;;;5073724;28;19925;-74
2021/07/11 02:16:11;;;;;;;;;;;18.40;99.90;;;;;;5087400;28;19963;-74
2021/07/11 02:18:40;;;;;;;;;;;18.50;99.90;;;;;;5078934;28;19925;-74
2021/07/11 02:21:07;;;;;;;;;;;18.40;99.90;;;;;;5081646;28;20340;-74
2021/07/11 02:23:34;;;;;;;;;;;18.60;99.90;;;;;;5073211;28;19933;-73
2021/07/11 02:26:01;;;;;;;;;;;18.80;99.90;;;;;;5089752;28;20566;-75
2021/07/11 02:28:29;;;;;;;;;;;18.80;99.90;;;;;;5076711;28;19931;-73
2021/07/11 02:31:00;;;;;;;;;;;18.80;99.90;;;;;;5090486;28;19928;-73
2021/07/11 02:33:36;;;;;;;;;;;18.90;99.90;;;;;;5093300;28;19966;-73
2021/07/11 02:36:10;;;;;;;;;;;18.70;99.90;;;;;;5084314;28;19928;-73
2021/07/11 02:38:43;;;;;;;;;;;18.50;99.90;;;;;;5077780;28;21348;-73
2021/07/11 02:41:11;;;;;;;;;;;18.30;99.90;;;;;;5072286;28;19929;-73
2021/07/11 02:43:40;;;;;;;;;;;18.30;99.90;;;;;;5073047;28;19970;-74
2021/07/11 02:46:07;;;;;;;;;;;18.30;99.90;;;;;;5071781;28;19932;-73
2021/07/11 02:48:35;;;;;;;;;;;18.20;99.90;;;;;;5071694;28;19963;-73
2021/07/11 02:51:02;;;;;;;;;;;18.40;99.90;;;;;;5076126;28;19929;-73
2021/07/11 02:53:29;;;;;;;;;;;18.20;99.90;;;;;;5073811;28;19958;-73
2021/07/11 02:55:56;;;;;;;;;;;18.20;99.90;;;;;;5075507;28;19928;-73
2021/07/11 02:58:24;;;;;;;;;;;18.20;99.90;;;;;;5074905;28;20352;-73
2021/07/11 03:00:55;;;;;;;;;;;18.40;99.90;;;;;;5072809;28;19989;-73
2021/07/11 03:03:22;;;;;;;;;;;18.40;99.90;;;;;;5071958;28;19932;-73
2021/07/11 03:05:49;;;;;;;;;;;18.50;99.90;;;;;;5075012;28;20273;-73
2021/07/11 03:08:16;;;;;;;;;;;18.50;99.90;;;;;;5070300;28;19924;-73
2021/07/11 03:10:43;;;;;;;;;;;18.40;99.90;;;;;;5071702;28;19928;-74
2021/07/11 03:13:10;;;;;;;;;;;18.30;99.90;;;;;;5073194;28;19943;-72
2021/07/11 03:15:37;;;;;;;;;;;18.30;99.90;;;;;;5071489;28;19963;-73
2021/07/11 03:18:05;;;;;;;;;;;18.20;99.90;;;;;;5073125;28;19932;-73
2021/07/11 03:20:32;;;;;;;;;;;18.20;99.90;;;;;;5071946;28;19925;-73
2021/07/11 03:22:59;;;;;;;;;;;18.20;99.90;;;;;;5073511;28;20013;-73
2021/07/11 03:25:26;;;;;;;;;;;18.20;99.90;;;;;;5082092;28;20436;-73
2021/07/11 03:27:53;;;;;;;;;;;18.20;99.90;;;;;;5071693;28;20370;-73
2021/07/11 03:30:21;;;;;;;;;;;18.20;99.90;;;;;;5076191;28;19924;-73
2021/07/11 03:32:53;;;;;;;;;;;18.30;99.90;;;;;;5106908;27;19974;-73
2021/07/11 03:35:28;;;;;;;;;;;18.30;99.90;;;;;;5105429;27;19925;-73
2021/07/11 03:37:56;;;;;;;;;;;18.10;99.90;;;;;;5081808;28;19932;-73
2021/07/11 03:40:25;;;;;;;;;;;18.10;99.90;;;;;;5072415;28;19928;-73
2021/07/11 03:42:54;;;;;;;;;;;18.00;99.90;;;;;;5072325;28;19928;-72
2021/07/11 03:45:22;;;;;;;;;;;18.10;99.90;;;;;;5073244;28;19989;-73
2021/07/11 03:47:50;;;;;;;;;;;18.30;99.90;;;;;;5072872;28;20860;-72
2021/07/11 03:50:19;;;;;;;;;;;18.40;99.90;;;;;;5072426;28;19933;-75
2021/07/11 03:53:06;;;;;;;;;;;18.40;99.90;;;;;;5072706;28;19928;-72
2021/07/11 03:55:33;;;;;;;;;;;18.40;99.90;;;;;;5068411;28;19936;-73
2021/07/11 03:58:01;;;;;;;;;;;18.30;99.90;;;;;;5071172;28;19969;-72
2021/07/11 04:00:28;;;;;;;;;;;18.30;99.90;;;;;;5072404;28;19924;-73
2021/07/11 04:02:55;;;;;;;;;;;18.30;99.90;;;;;;5072473;28;19977;-72
2021/07/11 04:05:25;;;;;;;;;;;18.30;99.90;;;;;;5074134;28;20365;-72
2021/07/11 04:07:53;;;;;;;;;;;18.30;99.90;;;;;;5071653;28;20292;-72
2021/07/11 04:10:24;;;;;;;;;;;18.30;99.90;;;;;;5076650;28;19924;-72
2021/07/11 04:12:51;;;;;;;;;;;18.40;99.90;;;;;;5081257;28;20371;-72
2021/07/11 04:15:19;;;;;;;;;;;18.50;99.90;;;;;;5073309;28;19928;-74
2021/07/11 04:17:47;;;;;;;;;;;18.30;99.90;;;;;;5071248;28;19978;-73
2021/07/11 04:20:15;;;;;;;;;;;18.40;99.90;;;;;;5073923;28;19936;-73
2021/07/11 04:22:42;;;;;;;;;;;18.30;99.90;;;;;;5080892;28;19954;-73
2021/07/11 04:25:10;;;;;;;;;;;18.10;99.90;;;;;;5072580;28;19969;-73
2021/07/11 04:27:37;;;;;;;;;;;18.20;99.90;;;;;;5071857;28;19928;-73
2021/07/11 04:30:08;;;;;;;;;;;18.00;99.90;;;;;;5071666;28;20306;-73
2021/07/11 04:32:35;;;;;;;;;;;17.90;99.90;;;;;;5070602;28;19978;-73
2021/07/11 04:35:03;;;;;;;;;;;18.00;99.90;;;;;;5080129;28;20223;-73
2021/07/11 04:37:30;;;;;;;;;;;18.00;99.90;;;;;;5071784;28;19931;-72
2021/07/11 04:39:57;;;;;;;;;;;18.10;99.90;;;;;;5070507;28;19970;-72
2021/07/11 04:42:23;;;;;;;;;;;18.20;99.90;;;;;;5081982;28;19935;-73
2021/07/11 04:44:51;;;;;;;;;;;18.00;99.90;;;;;;5080272;28;20346;-73
2021/07/11 04:47:18;;;;;;;;;;;18.10;99.90;;;;;;5073183;28;19924;-73
2021/07/11 04:49:45;;;;;;;;;;;18.00;99.90;;;;;;5070084;28;19935;-73
2021/07/11 04:52:12;;;;;;;;;;;17.90;99.90;;;;;;5080671;28;19931;-73
2021/07/11 04:54:39;;;;;;;;;;;18.10;99.90;;;;;;5069748;28;19977;-73
2021/07/11 04:57:06;;;;;;;;;;;18.10;99.90;;;;;;5072430;28;20002;-72
2021/07/11 04:59:32;;;;;;;;;;;18.10;99.90;;;;;;5072547;28;19950;-72
2021/07/11 05:01:59;;;;;;;;;;;18.10;99.90;;;;;;5074247;28;19978;-73
2021/07/11 05:04:27;;;;;;;;;;;18.10;99.90;;;;;;5068526;28;20023;-73
2021/07/11 05:06:54;;;;;;;;;;;18.10;99.90;;;;;;5071141;28;19947;-73
2021/07/11 05:09:20;;;;;;;;;;;18.20;99.90;;;;;;5072485;28;19998;-73
2021/07/11 05:11:47;;;;;;;;;;;18.20;99.90;;;;;;5071708;28;19928;-73
2021/07/11 05:14:14;;;;;;;;;;;18.10;99.90;;;;;;5070102;28;19936;-74
2021/07/11 05:16:41;;;;;;;;;;;18.10;99.90;;;;;;5072911;28;19924;-74
2021/07/11 05:19:08;;;;;;;;;;;18.10;99.90;;;;;;5071550;28;19956;-74
2021/07/11 05:21:36;;;;;;;;;;;18.20;99.90;;;;;;5071882;28;20001;-73
2021/07/11 05:24:03;;;;;;;;;;;18.20;99.90;;;;;;5070199;28;20334;-74
2021/07/11 05:26:37;;;;;;;;;;;18.20;99.90;;;;;;5069072;28;20298;-75
2021/07/11 05:29:18;;;;;;;;;;;18.20;99.90;;;;;;5069866;28;20391;-74
2021/07/11 05:31:45;;;;;;;;;;;18.10;99.90;;;;;;5067964;28;19999;-74
2021/07/11 05:34:11;;;;;;;;;;;18.00;99.90;;;;;;5071815;28;20030;-76
2021/07/11 05:36:38;;;;;;;;;;;18.10;99.90;;;;;;5080925;28;19928;-76
2021/07/11 05:39:05;;;;;;;;;;;18.10;99.90;;;;;;5074890;28;20656;-76
2021/07/11 05:41:32;;;;;;;;;;;18.00;99.90;;;;;;5069489;28;19936;-76
2021/07/11 05:43:59;;;;;;;;;;;18.10;99.90;;;;;;5065630;28;19928;-76
2021/07/11 05:46:27;;;;;;;;;;;18.40;99.90;;;;;;5067659;28;19935;-76
2021/07/11 05:48:54;;;;;;;;;;;18.30;99.90;;;;;;5078234;28;20291;-76
2021/07/11 05:51:21;;;;;;;;;;;18.40;99.90;;;;;;5069525;28;20322;-76
2021/07/11 05:53:48;;;;;;;;;;;18.40;99.90;;;;;;5068793;28;19993;-76
2021/07/11 05:56:14;;;;;;;;;;;18.50;99.90;;;;;;5068252;28;19974;-77
2021/07/11 05:58:41;;;;;;;;;;;18.60;99.90;;;;;;5067489;28;21194;-78
2021/07/11 06:01:08;;;;;;;;;;;18.70;99.90;;;;;;5069910;28;20001;-77
2021/07/11 06:03:35;;;;;;;;;;;18.80;99.90;;;;;;5068679;28;20372;-75
2021/07/11 06:06:02;;;;;;;;;;;18.70;99.90;;;;;;5102332;27;21434;-75
2021/07/11 06:08:29;;;;;;;;;;;19.10;99.90;;;;;;5070167;28;20387;-75
2021/07/11 06:10:56;;;;;;;;;;;18.90;99.90;;;;;;5066423;28;20317;-76
2021/07/11 06:13:23;;;;;;;;;;;19.10;99.90;;;;;;5072377;28;20727;-76
2021/07/11 06:15:50;;;;;;;;;;;19.20;99.90;;;;;;5075527;28;20015;-76
2021/07/11 06:18:17;;;;;;;;;;;19.00;99.90;;;;;;5069444;28;19932;-76
2021/07/11 06:20:44;;;;;;;;;;;19.00;99.90;;;;;;5074171;28;20292;-76
2021/07/11 06:23:11;;;;;;;;;;;19.00;99.90;;;;;;5070501;28;20346;-75
2021/07/11 06:25:38;;;;;;;;;;;19.00;99.90;;;;;;5075053;28;19986;-76
2021/07/11 06:28:06;;;;;;;;;;;18.90;99.90;;;;;;5069813;28;19928;-75
2021/07/11 06:30:33;;;;;;;;;;;19.00;99.90;;;;;;5071287;28;19985;-76
2021/07/11 06:32:59;;;;;;;;;;;19.00;99.90;;;;;;5071950;28;19924;-76
2021/07/11 06:35:27;;;;;;;;;;;19.00;99.90;;;;;;5079876;28;19924;-76
2021/07/11 06:37:54;;;;;;;;;;;18.90;99.90;;;;;;5067798;28;19982;-76
2021/07/11 06:40:22;;;;;;;;;;;19.10;99.90;;;;;;5068885;28;20573;-76
2021/07/11 06:42:50;;;;;;;;;;;19.10;99.90;;;;;;5071625;28;19924;-77
2021/07/11 06:45:17;;;;;;;;;;;19.10;99.90;;;;;;5073929;28;19928;-77
2021/07/11 06:47:44;;;;;;;;;;;19.30;99.90;;;;;;5072113;28;19925;-76
2021/07/11 06:50:13;;;;;;;;;;;19.60;99.90;;;;;;5070894;28;19981;-77
2021/07/11 06:52:40;;;;;;;;;;;19.40;99.90;;;;;;5072263;28;19936;-78
2021/07/11 06:55:08;;;;;;;;;;;19.10;99.90;;;;;;5071143;28;19935;-78
2021/07/11 06:57:35;;;;;;;;;;;19.10;99.90;;;;;;5069053;28;20452;-78
2021/07/11 07:00:04;;;;;;;;;;;19.10;99.90;;;;;;5076383;28;20470;-78
2021/07/11 07:02:30;;;;;;;;;;;19.20;99.90;;;;;;5067570;28;19933;-77
2021/07/11 07:04:57;;;;;;;;;;;19.30;99.90;;;;;;5068249;28;19978;-77
2021/07/11 07:07:24;;;;;;;;;;;19.30;99.90;;;;;;5069931;28;19985;-77
2021/07/11 07:09:51;;;;;;;;;;;19.10;99.90;;;;;;5083219;28;19982;-76
2021/07/11 07:12:18;;;;;;;;;;;19.20;99.90;;;;;;5076727;28;19932;-77
2021/07/11 07:14:44;;;;;;;;;;;19.10;99.90;;;;;;5083014;28;19948;-77
2021/07/11 07:17:11;;;;;;;;;;;19.50;99.90;;;;;;5081416;28;19932;-77
2021/07/11 07:19:38;;;;;;;;;;;19.40;99.90;;;;;;5071586;28;19925;-80
2021/07/11 07:22:05;;;;;;;;;;;19.20;99.90;;;;;;5074914;28;20407;-78
2021/07/11 07:24:32;;;;;;;;;;;19.00;99.90;;;;;;5075584;28;20440;-80
2021/07/11 07:26:59;;;;;;;;;;;18.90;99.90;;;;;;5082840;28;20269;-78
2021/07/11 07:29:26;;;;;;;;;;;19.00;99.90;;;;;;5084106;28;19924;-77
2021/07/11 07:31:53;;;;;;;;;;;19.00;99.90;;;;;;5083498;28;19931;-77
2021/07/11 07:34:20;;;;;;;;;;;19.10;99.90;;;;;;5078792;28;19924;-77
2021/07/11 07:36:46;;;;;;;;;;;19.10;99.90;;;;;;5084142;28;19928;-80
2021/07/11 07:39:13;;;;;;;;;;;19.10;99.90;;;;;;5076682;28;19985;-76
2021/07/11 07:41:40;;;;;;;;;;;19.30;99.90;;;;;;5090933;28;19940;-76
2021/07/11 07:44:07;;;;;;;;;;;19.10;99.90;;;;;;5082085;28;19924;-78
2021/07/11 07:46:34;;;;;;;;;;;19.00;99.90;;;;;;5109727;27;19936;-76
2021/07/11 07:49:01;;;;;;;;;;;19.00;99.90;;;;;;5071625;28;19982;-76
2021/07/11 07:51:28;;;;;;;;;;;19.10;99.90;;;;;;5074597;28;19965;-75
2021/07/11 07:53:55;;;;;;;;;;;19.20;99.90;;;;;;5074997;28;19971;-77
2021/07/11 07:56:22;;;;;;;;;;;19.20;99.90;;;;;;5073358;28;20484;-76
2021/07/11 07:58:49;;;;;;;;;;;19.10;99.90;;;;;;5072858;28;20374;-77
2021/07/11 08:01:16;;;;;;;;;;;19.10;99.90;;;;;;5073237;28;19924;-74
2021/07/11 08:03:43;;;;;;;;;;;19.20;99.90;;;;;;5080056;28;19990;-74
2021/07/11 08:06:10;;;;;;;;;;;19.40;99.90;;;;;;5081415;28;20261;-74
2021/07/11 08:08:37;;;;;;;;;;;19.30;99.90;;;;;;5081242;28;20027;-75
2021/07/11 08:11:07;;;;;;;;;;;19.30;99.90;;;;;;5080501;28;20039;-74
2021/07/11 08:13:37;;;;;;;;;;;19.40;99.90;;;;;;5081419;28;20421;-75
2021/07/11 08:16:06;;;;;;;;;;;19.20;99.90;;;;;;5077417;27;19974;-75
2021/07/11 08:18:33;;;;;;;;;;;19.10;99.90;;;;;;5073399;28;19929;-74
2021/07/11 08:21:00;;;;;;;;;;;19.00;99.90;;;;;;5070417;28;19963;-75
2021/07/11 08:23:27;;;;;;;;;;;18.90;99.90;;;;;;5069904;28;19995;-74
2021/07/11 08:25:54;;;;;;;;;;;19.00;99.90;;;;;;5073592;28;19928;-74
2021/07/11 08:28:21;;;;;;;;;;;18.90;99.90;;;;;;5077505;28;19940;-75
2021/07/11 08:30:47;;;;;;;;;;;18.90;99.90;;;;;;5077900;28;19977;-74
2021/07/11 08:33:14;;;;;;;;;;;19.00;99.90;;;;;;5071371;28;19929;-75
2021/07/11 08:35:41;;;;;;;;;;;19.10;99.90;;;;;;5071210;28;19932;-74
2021/07/11 08:38:08;;;;;;;;;;;19.00;99.90;;;;;;5078869;28;20076;-73
2021/07/11 08:40:35;;;;;;;;;;;19.20;99.90;;;;;;5075884;28;19928;-73
2021/07/11 08:43:03;;;;;;;;;;;19.10;99.90;;;;;;5074115;28;19924;-73
2021/07/11 08:45:30;;;;;;;;;;;19.20;99.90;;;;;;5080429;28;19940;-74
2021/07/11 08:47:57;;;;;;;;;;;19.20;99.90;;;;;;5071550;28;20039;-74
2021/07/11 08:50:24;;;;;;;;;;;19.20;99.90;;;;;;5074391;28;19932;-75
2021/07/11 08:52:51;;;;;;;;;;;19.30;99.90;;;;;;5080679;28;19998;-74
2021/07/11 08:55:22;;;;;;;;;;;19.20;99.90;;;;;;5072586;28;19932;-74
2021/07/11 08:57:52;;;;;;;;;;;19.20;99.90;;;;;;5079623;28;19935;-73
2021/07/11 09:00:22;;;;;;;;;;;19.20;99.90;;;;;;5070871;28;19928;-75
2021/07/11 09:02:48;;;;;;;;;;;19.40;99.90;;;;;;5073379;28;19929;-76
2021/07/11 09:05:21;;;;;;;;;;;19.40;99.90;;;;;;5078277;28;19932;-74
2021/07/11 09:07:58;;;;;;;;;;;19.50;99.90;;;;;;5072713;28;20276;-75
2021/07/11 09:10:47;;;;;;;;;;;19.60;99.90;;;;;;5071033;28;19932;-74
2021/07/11 09:13:15;;;;;;;;;;;19.60;99.30;;;;;;5071298;28;20043;-74
2021/07/11 09:15:44;;;;;;;;;;;19.70;99.40;;;;;;5079300;28;19994;-75
2021/07/11 09:18:11;;;;;;;;;;;19.80;99.30;;;;;;5069618;28;19935;-74
2021/07/11 09:20:48;;;;;;;;;;;19.90;98.50;;;;;;5072538;28;19924;-74
2021/07/11 09:23:14;;;;;;;;;;;20.00;98.10;;;;;;5102965;27;20061;-73
2021/07/11 09:25:41;;;;;;;;;;;20.10;97.70;;;;;;5069318;28;19977;-73
2021/07/11 09:28:11;;;;;;;;;;;20.20;97.40;;;;;;5071761;28;19930;-73
2021/07/11 09:30:39;;;;;;;;;;;20.20;97.80;;;;;;5070638;28;19924;-73
2021/07/11 09:33:16;;;;;;;;;;;20.40;97.50;;;;;;5078232;28;20287;-73
2021/07/11 09:35:43;;;;;;;;;;;20.40;97.70;;;;;;5071355;28;20264;-74
2021/07/11 09:38:12;;;;;;;;;;;20.40;97.50;;;;;;5071116;28;19932;-74
2021/07/11 09:40:39;;;;;;;;;;;20.30;97.80;;;;;;5070729;28;19924;-74
2021/07/11 09:43:11;;;;;;;;;;;20.20;98.00;;;;;;5073173;28;20018;-73
2021/07/11 09:45:38;;;;;;;;;;;20.20;98.10;;;;;;5072833;28;19925;-75
2021/07/11 09:48:07;;;;;;;;;;;20.10;97.70;;;;;;5068308;28;19959;-75
2021/07/11 09:50:34;;;;;;;;;;;20.20;97.90;;;;;;5069553;28;19933;-73
2021/07/11 09:53:02;;;;;;;;;;;20.30;97.50;;;;;;5074429;28;19928;-74
2021/07/11 09:55:29;;;;;;;;;;;20.20;97.50;;;;;;5069071;28;19932;-75
2021/07/11 09:57:57;;;;;;;;;;;20.20;97.20;;;;;;5072730;28;19929;-73
2021/07/11 10:00:27;;;;;;;;;;;20.30;97.10;;;;;;5068551;28;19928;-73
2021/07/11 10:02:56;;;;;;;;;;;20.70;96.50;;;;;;5065525;28;20001;-74
2021/07/11 10:05:24;;;;;;;;;;;20.90;96.20;;;;;;5067316;28;19943;-73
2021/07/11 10:07:52;;;;;;;;;;;20.90;96.00;;;;;;5093553;28;19927;-74
2021/07/11 10:10:20;;;;;;;;;;;21.10;95.60;;;;;;5079054;28;19943;-73
2021/07/11 10:12:48;;;;;;;;;;;21.00;94.90;;;;;;5082012;28;19928;-73
2021/07/11 10:15:16;;;;;;;;;;;21.20;94.30;;;;;;5072863;28;19932;-73
2021/07/11 10:17:49;;;;;;;;;;;21.30;94.00;;;;;;5070341;28;20057;-74
2021/07/11 10:20:18;;;;;;;;;;;21.60;93.70;;;;;;5073004;28;20383;-73
2021/07/11 10:22:48;;;;;;;;;;;21.70;93.00;;;;;;5073512;28;19928;-74
2021/07/11 10:25:19;;;;;;;;;;;21.60;92.80;;;;;;5076307;28;19973;-73
2021/07/11 10:27:47;;;;;;;;;;;21.60;92.70;;;;;;5073035;28;19932;-73
2021/07/11 10:30:15;;;;;;;;;;;21.80;92.20;;;;;;5073626;28;20310;-74
2021/07/11 10:32:44;;;;;;;;;;;22.10;92.00;;;;;;5075064;28;19924;-72
2021/07/11 10:35:13;;;;;;;;;;;22.00;91.90;;;;;;5073394;28;20299;-72
2021/07/11 10:37:44;;;;;;;;;;;22.10;91.30;;;;;;5073004;28;19929;-74
2021/07/11 10:40:12;;;;;;;;;;;22.10;90.30;;;;;;5070601;28;19936;-75
2021/07/11 10:42:40;;;;;;;;;;;22.10;89.50;;;;;;5072573;28;20117;-72
2021/07/11 10:45:08;;;;;;;;;;;22.20;90.30;;;;;;5075653;28;20335;-73
2021/07/11 10:47:35;;;;;;;;;;;22.20;90.70;;;;;;5078793;28;20299;-73
2021/07/11 10:50:07;;;;;;;;;;;22.20;90.00;;;;;;5071737;28;20015;-73
2021/07/11 10:52:36;;;;;;;;;;;21.90;90.10;;;;;;5109602;27;20047;-73
2021/07/11 10:55:06;;;;;;;;;;;21.80;89.80;;;;;;5073189;28;20059;-74
2021/07/11 10:57:35;;;;;;;;;;;21.60;90.20;;;;;;5078154;28;19935;-72
2021/07/11 11:00:14;;;;;;;;;;;21.70;89.50;;;;;;5071582;28;20004;-74
2021/07/11 11:02:43;;;;;;;;;;;21.80;90.30;;;;;;5068380;28;19928;-73
2021/07/11 11:05:23;;;;;;;;;;;21.80;88.90;;;;;;5075792;28;19936;-73
2021/07/11 11:07:55;;;;;;;;;;;21.70;88.60;;;;;;5074038;28;19938;-73
2021/07/11 11:10:22;;;;;;;;;;;21.80;89.00;;;;;;5071292;28;19936;-73
2021/07/11 11:13:00;;;;;;;;;;;21.80;88.90;;;;;;5073849;28;19936;-72
2021/07/11 11:15:34;;;;;;;;;;;21.80;88.10;;;;;;5072998;28;19998;-73
2021/07/11 11:18:22;;;;;;;;;;;21.80;87.90;;;;;;5071442;28;20422;-73
2021/07/11 11:20:51;;;;;;;;;;;21.90;87.20;;;;;;5073775;28;19952;-72
2021/07/11 11:23:18;;;;;;;;;;;22.00;86.90;;;;;;5076463;28;20031;-73
2021/07/11 11:25:46;;;;;;;;;;;22.10;85.80;;;;;;5070558;28;19932;-73
2021/07/11 11:28:13;;;;;;;;;;;22.10;85.90;;;;;;5072867;28;19967;-73
2021/07/11 11:30:43;;;;;;;;;;;22.10;85.40;;;;;;5072960;28;20314;-74
2021/07/11 11:33:11;;;;;;;;;;;22.10;85.80;;;;;;5072664;28;19982;-72
2021/07/11 11:35:45;;;;;;;;;;;22.30;85.60;;;;;;5073780;28;19928;-73
2021/07/11 11:38:13;;;;;;;;;;;22.40;84.90;;;;;;5105872;27;20649;-73
2021/07/11 11:40:40;;;;;;;;;;;22.70;83.00;;;;;;5062199;28;19932;-72
2021/07/11 11:43:07;;;;;;;;;;;22.80;81.60;;;;;;5079598;28;20077;-73
2021/07/11 11:45:35;;;;;;;;;;;23.00;81.50;;;;;;5073953;28;20005;-73
2021/07/11 11:48:09;;;;;;;;;;;23.10;81.00;;;;;;5075100;28;19951;-73
2021/07/11 11:50:38;;;;;;;;;;;23.30;79.50;;;;;;5075659;28;19935;-73
2021/07/11 11:53:08;;;;;;;;;;;23.00;79.30;;;;;;5076547;28;20321;-72
2021/07/11 11:55:38;;;;;;;;;;;23.00;77.60;;;;;;5070728;28;19977;-73
2021/07/11 11:58:08;;;;;;;;;;;22.70;80.10;;;;;;5078421;28;20414;-72
2021/07/11 12:00:36;;;;;;;;;;;23.10;77.30;;;;;;5081286;28;20305;-73
2021/07/11 12:03:05;;;;;;;;;;;23.20;76.50;;;;;;5079480;28;19933;-74
2021/07/11 12:05:34;;;;;;;;;;;23.20;77.60;;;;;;5078297;28;20014;-76
2021/07/11 12:08:15;;;;;;;;;;;23.10;78.80;;;;;;5083084;28;20497;-75
2021/07/11 12:10:44;;;;;;;;;;;23.30;75.60;;;;;;5080108;28;19936;-76
2021/07/11 12:13:20;;;;;;;;;;;23.80;74.20;;;;;;5076965;28;19959;-76
2021/07/11 12:15:47;;;;;;;;;;;23.50;75.20;;;;;;5082994;28;19955;-76
2021/07/11 12:18:17;;;;;;;;;;;23.50;75.20;;;;;;5079883;28;19936;-76
2021/07/11 12:20:52;;;;;;;;;;;23.70;74.30;;;;;;5080758;27;22350;-76
2021/07/11 12:23:24;;;;;;;;;;;23.60;72.70;;;;;;5078577;28;19932;-76
2021/07/11 12:26:03;;;;;;;;;;;23.10;74.50;;;;;;5083002;28;20363;-76
2021/07/11 12:28:32;;;;;;;;;;;22.80;74.70;;;;;;5080840;28;19928;-76
2021/07/11 12:31:01;;;;;;;;;;;23.90;73.60;;;;;;5082890;28;19931;-76
2021/07/11 12:33:29;;;;;;;;;;;24.50;71.00;;;;;;5082213;28;19936;-76
2021/07/11 12:36:01;;;;;;;;;;;26.90;65.20;;;;;;5092709;27;20012;-75
2021/07/11 12:38:31;;;;;;;;;;;25.70;63.50;;;;;;5077547;28;20446;-75
2021/07/11 12:40:59;;;;;;;;;;;30.70;54.70;;;;;;5078177;28;19932;-75
2021/07/11 12:43:33;;;;;;;;;;;31.90;50.40;;;;;;5079890;28;20421;-75
2021/07/11 12:46:02;;;;;;;;;;;33.60;45.50;;;;;;5079169;28;19928;-76
2021/07/11 12:48:39;;;;;;;;;;;31.10;47.80;;;;;;5079724;28;19932;-76
2021/07/11 12:51:21;;;;;;;;;;;33.10;46.40;;;;;;5082986;28;19939;-77
2021/07/11 12:53:49;;;;;;;;;;;31.50;46.90;;;;;;5081808;28;19928;-76
2021/07/11 12:56:21;;;;;;;;;;;30.80;48.70;;;;;;5082391;28;19937;-76
2021/07/11 12:58:50;;;;;;;;;;;29.70;47.00;;;;;;5080795;28;21212;-77
2021/07/11 13:01:18;;;;;;;;;;;26.90;50.90;;;;;;5079761;28;19938;-76
2021/07/11 13:03:55;;;;;;;;;;;25.70;54.40;;;;;;5081033;28;19935;-77
2021/07/11 13:06:33;;;;;;;;;;;26.50;54.50;;;;;;5083442;28;19939;-76
2021/07/11 13:09:00;;;;;;;;;;;26.10;53.60;;;;;;5081671;28;19986;-77
2021/07/11 13:11:28;;;;;;;;;;;26.50;53.80;;;;;;5080048;28;19932;-77
2021/07/11 13:13:55;;;;;;;;;;;25.60;55.20;;;;;;5076810;28;19928;-78
2021/07/11 13:16:24;;;;;;;;;;;25.50;56.50;;;;;;5079076;28;19932;-77
2021/07/11 13:18:52;;;;;;;;;;;26.40;54.80;;;;;;5081175;28;19956;-78
2021/07/11 13:21:20;;;;;;;;;;;26.10;55.20;;;;;;5079241;28;19932;-78
2021/07/11 13:23:48;;;;;;;;;;;26.50;55.90;;;;;;5077651;28;20013;-76
2021/07/11 13:26:15;;;;;;;;;;;27.20;53.70;;;;;;5076956;28;19940;-77
2021/07/11 13:28:42;;;;;;;;;;;27.60;52.50;;;;;;5076516;28;19932;-75
2021/07/11 13:31:09;;;;;;;;;;;26.10;53.30;;;;;;5081368;28;19928;-75
2021/07/11 13:33:36;;;;;;;;;;;24.90;55.90;;;;;;5082079;28;21455;-76
2021/07/11 13:36:03;;;;;;;;;;;24.70;58.00;;;;;;5078824;28;19959;-76
2021/07/11 13:38:31;;;;;;;;;;;24.60;56.50;;;;;;5079254;28;20322;-76
2021/07/11 13:40:58;;;;;;;;;;;24.00;57.50;;;;;;5078658;28;19993;-75
2021/07/11 13:43:27;;;;;;;;;;;24.00;58.00;;;;;;5077258;28;19960;-75
2021/07/11 13:45:55;;;;;;;;;;;24.00;57.90;;;;;;5077189;28;20315;-75
2021/07/11 13:48:22;;;;;;;;;;;23.80;58.40;;;;;;5079740;28;20019;-75
2021/07/11 13:50:49;;;;;;;;;;;23.90;59.60;;;;;;5080658;28;20736;-74
2021/07/11 13:53:19;;;;;;;;;;;23.90;59.30;;;;;;5076239;28;19932;-74
2021/07/11 13:55:47;;;;;;;;;;;24.00;61.30;;;;;;5079562;28;19931;-74
2021/07/11 13:58:14;;;;;;;;;;;24.00;61.50;;;;;;5081230;28;19928;-74
2021/07/11 14:00:41;;;;;;;;;;;24.00;62.00;;;;;;5083347;28;19939;-76
2021/07/11 14:03:09;;;;;;;;;;;24.00;63.60;;;;;;5095413;27;19956;-75
2021/07/11 14:05:36;;;;;;;;;;;24.00;61.30;;;;;;5075605;28;19932;-76
2021/07/11 14:08:03;;;;;;;;;;;24.00;61.60;;;;;;5077436;28;19928;-75
2021/07/11 14:10:31;;;;;;;;;;;24.10;62.90;;;;;;5108002;27;19928;-76
2021/07/11 14:12:59;;;;;;;;;;;24.20;62.40;;;;;;5079646;28;20287;-76
2021/07/11 14:15:27;;;;;;;;;;;24.00;62.60;;;;;;5073798;28;21176;-75
2021/07/11 14:17:55;;;;;;;;;;;24.10;61.70;;;;;;5076803;28;19932;-76
2021/07/11 14:20:26;;;;;;;;;;;24.20;63.00;;;;;;5080439;28;19931;-75
2021/07/11 14:22:59;;;;;;;;;;;24.20;61.30;;;;;;5080910;28;19931;-75